Time;durP1;ratioP1;P1;durP2;ratioP2;P2;SDS_P1;SDS_P2;PMS_P1;PMS_P2;Temp;Humidity;BMP_temperature;BMP_pressure;BME280_temperature;BME280_humidity;BME280_pressure;Samples;Min_cycle;Max_cycle;Signal;HPM_P1;HPM_P2
2022/07/23 00:00:15;;;;;;;4.03;3.55;;;;;;;15.47;100.00;98626.16;1732726;82;21027;-76
2022/07/23 00:02:42;;;;;;;5.20;3.60;;;;;;;15.46;100.00;98620.44;1731953;82;21034;-76
2022/07/23 00:05:09;;;;;;;4.97;3.85;;;;;;;15.47;100.00;98622.62;1722924;83;21484;-75
2022/07/23 00:07:38;;;;;;;5.92;3.80;;;;;;;15.44;100.00;98619.85;1722652;83;21030;-76
2022/07/23 00:10:05;;;;;;;7.35;4.22;;;;;;;15.43;100.00;98621.44;1722890;83;20983;-75
2022/07/23 00:12:32;;;;;;;5.20;3.80;;;;;;;15.41;100.00;98617.59;1722962;83;21014;-76
2022/07/23 00:14:59;;;;;;;5.20;3.92;;;;;;;15.40;100.00;98615.92;1722653;83;21034;-76
2022/07/23 00:17:27;;;;;;;7.40;4.00;;;;;;;15.38;100.00;98610.70;1722627;83;21059;-75
2022/07/23 00:19:54;;;;;;;4.75;4.00;;;;;;;15.36;100.00;98608.76;1722901;83;21053;-75
2022/07/23 00:22:21;;;;;;;5.33;3.98;;;;;;;15.36;100.00;98608.76;1723010;83;21005;-75
2022/07/23 00:24:48;;;;;;;5.05;4.10;;;;;;;15.35;100.00;98611.72;1722760;83;21014;-75
2022/07/23 00:27:14;;;;;;;6.30;4.08;;;;;;;15.35;100.00;98610.35;1722884;83;21491;-75
2022/07/23 00:29:41;;;;;;;9.65;4.03;;;;;;;15.34;100.00;98599.19;1722680;83;21503;-76
2022/07/23 00:32:08;;;;;;;5.53;3.95;;;;;;;15.33;100.00;98598.36;1722876;83;21578;-75
2022/07/23 00:34:35;;;;;;;4.37;3.95;;;;;;;15.33;100.00;98598.36;1722628;83;21038;-76
2022/07/23 00:37:02;;;;;;;9.98;4.15;;;;;;;15.33;100.00;98598.36;1722911;83;21021;-76
2022/07/23 00:39:29;;;;;;;7.05;4.00;;;;;;;15.34;100.00;98599.19;1722887;83;21010;-76
2022/07/23 00:41:55;;;;;;;4.58;3.80;;;;;;;15.33;100.00;98594.79;1722857;83;21030;-76
2022/07/23 00:44:26;;;;;;;7.97;3.60;;;;;;;15.31;100.00;98591.48;1722927;83;21066;-76
2022/07/23 00:46:56;;;;;;;6.22;3.50;;;;;;;15.29;100.00;98594.44;1722974;83;21029;-75
2022/07/23 00:49:25;;;;;;;5.47;3.37;;;;;;;15.28;100.00;98587.35;1722910;83;21503;-76
2022/07/23 00:51:52;;;;;;;5.47;3.50;;;;;;;15.26;100.00;98584.55;1722912;83;21046;-76
2022/07/23 00:54:19;;;;;;;3.95;3.58;;;;;;;15.26;100.00;98588.09;1722771;83;20998;-76
2022/07/23 00:56:46;;;;;;;4.12;3.80;;;;;;;15.25;100.00;98591.08;1722648;83;21065;-74
2022/07/23 00:59:13;;;;;;;4.25;3.40;;;;;;;15.23;100.00;98591.82;1722621;83;21511;-74
2022/07/23 01:01:41;;;;;;;5.20;3.77;;;;;;;15.21;100.00;98583.92;1722733;83;21073;-76
2022/07/23 01:04:07;;;;;;;6.62;3.98;;;;;;;15.17;100.00;98582.72;1722594;82;21046;-75
2022/07/23 01:06:36;;;;;;;4.65;3.40;;;;;;;15.17;100.00;98582.72;1722685;83;21062;-76
2022/07/23 01:09:07;;;;;;;4.80;3.70;;;;;;;15.13;100.00;98581.00;1722812;83;20978;-76
2022/07/23 01:11:35;;;;;;;5.45;3.52;;;;;;;15.09;100.00;98589.89;1722679;83;21034;-76
2022/07/23 01:14:16;;;;;;;5.72;3.83;;;;;;;15.09;100.00;98589.89;1720054;83;21061;-76
2022/07/23 01:16:43;;;;;;;5.12;3.58;;;;;;;15.06;100.00;98589.81;1723010;83;20997;-74
2022/07/23 01:19:11;;;;;;;3.62;3.33;;;;;;;15.03;100.00;98584.83;1722953;83;21022;-76
2022/07/23 01:21:41;;;;;;;4.72;3.58;;;;;;;15.00;100.00;98585.33;1722780;83;21010;-76
2022/07/23 01:24:08;;;;;;;8.33;4.22;;;;;;;14.96;100.00;98578.16;1725013;83;21005;-74
2022/07/23 01:26:39;;;;;;;6.33;4.03;;;;;;;14.92;100.00;98580.22;1725671;83;21009;-75
2022/07/23 01:29:06;;;;;;;4.58;3.50;;;;;;;14.92;100.00;98580.22;1723323;83;21029;-76
2022/07/23 01:31:34;;;;;;;8.63;3.92;;;;;;;14.90;100.00;98586.44;1722903;83;21029;-75
2022/07/23 01:34:01;;;;;;;6.25;3.58;;;;;;;14.88;100.00;98577.14;1722889;83;21050;-74
2022/07/23 01:36:30;;;;;;;5.25;3.95;;;;;;;14.81;100.00;98579.96;1722944;83;21057;-75
2022/07/23 01:38:57;;;;;;;4.20;3.62;;;;;;;14.81;100.00;98579.96;1722813;83;21106;-76
2022/07/23 01:41:24;;;;;;;4.67;3.70;;;;;;;14.81;100.00;98581.86;1723064;83;20994;-76
2022/07/23 01:43:50;;;;;;;6.10;3.90;;;;;;;14.78;100.00;98583.69;1723148;83;21052;-75
2022/07/23 01:46:18;;;;;;;4.75;3.70;;;;;;;14.77;100.00;98586.13;1723173;83;21030;-76
2022/07/23 01:48:46;;;;;;;6.90;3.70;;;;;;;14.75;100.00;98580.91;1722886;83;21037;-76
2022/07/23 01:51:24;;;;;;;4.92;3.80;;;;;;;14.72;100.00;98579.19;1642537;87;21046;-76
2022/07/23 01:53:53;;;;;;;5.10;3.72;;;;;;;14.70;100.00;98584.05;1631024;87;21056;-75
2022/07/23 01:56:20;;;;;;;5.65;3.83;;;;;;;14.69;100.00;98583.73;1631044;88;21526;-75
2022/07/23 01:58:49;;;;;;;7.67;3.72;;;;;;;14.67;100.00;98585.32;1630922;88;21040;-75
2022/07/23 02:01:16;;;;;;;5.15;4.08;;;;;;;14.66;100.00;98584.19;1630856;88;21060;-75
2022/07/23 02:03:43;;;;;;;4.83;4.00;;;;;;;14.66;100.00;98590.99;1630746;88;21099;-76
2022/07/23 02:06:10;;;;;;;5.05;3.75;;;;;;;14.63;100.00;98584.14;1630809;88;21060;-76
2022/07/23 02:08:39;;;;;;;9.08;4.20;;;;;;;14.62;100.00;98578.39;1631071;88;21075;-74
2022/07/23 02:11:06;;;;;;;5.22;4.00;;;;;;;14.61;100.00;98573.48;1630700;88;21154;-75
2022/07/23 02:13:33;;;;;;;4.53;3.83;;;;;;;14.60;100.00;98570.45;1631066;88;21056;-76
2022/07/23 02:16:00;;;;;;;5.62;3.83;;;;;;;14.59;100.00;98578.88;1630893;88;21093;-75
2022/07/23 02:18:27;;;;;;;5.40;3.98;;;;;;;14.59;100.00;98573.44;1630957;88;21016;-76
2022/07/23 02:20:54;;;;;;;5.37;3.92;;;;;;;14.58;100.00;98571.23;1630786;88;21208;-75
2022/07/23 02:23:21;;;;;;;5.22;4.25;;;;;;;14.58;100.00;98556.80;1630946;88;21076;-73
2022/07/23 02:25:48;;;;;;;5.33;3.80;;;;;;;14.59;100.00;98555.75;1630783;88;21087;-74
2022/07/23 02:28:16;;;;;;;4.28;3.85;;;;;;;14.58;100.00;98554.91;1631005;88;21076;-75
2022/07/23 02:30:44;;;;;;;5.37;4.00;;;;;;;14.56;100.00;98540.69;1630844;88;21052;-75
2022/07/23 02:33:11;;;;;;;6.75;3.98;;;;;;;14.57;100.00;98545.58;1630983;88;21566;-75
2022/07/23 02:35:39;;;;;;;5.20;4.00;;;;;;;14.56;100.00;98537.97;1630826;88;21092;-75
2022/07/23 02:38:06;;;;;;;6.10;4.12;;;;;;;14.57;100.00;98540.14;1630982;88;21103;-76
2022/07/23 02:40:33;;;;;;;4.78;3.85;;;;;;;14.54;100.00;98536.02;1630976;88;21047;-75
2022/07/23 02:43:00;;;;;;;7.83;4.05;;;;;;;14.53;100.00;98532.98;1630727;88;21533;-75
2022/07/23 02:45:28;;;;;;;4.72;4.00;;;;;;;14.53;100.00;98537.60;1630715;88;21080;-74
2022/07/23 02:47:57;;;;;;;6.08;4.25;;;;;;;14.53;100.00;98532.16;1675718;85;21544;-75
2022/07/23 02:50:25;;;;;;;7.22;4.45;;;;;;;14.53;100.00;98529.44;1699438;83;21479;-74
2022/07/23 02:52:53;;;;;;;5.33;4.35;;;;;;;14.54;100.00;98524.31;1723012;83;21009;-75
2022/07/23 02:55:21;;;;;;;5.12;4.40;;;;;;;14.55;100.00;98526.77;1722774;83;21014;-76
2022/07/23 02:57:49;;;;;;;5.17;4.30;;;;;;;14.57;100.00;98522.46;1722631;83;21034;-76
2022/07/23 03:00:17;;;;;;;10.23;4.75;;;;;;;14.58;100.00;98510.02;1702252;83;21030;-75
2022/07/23 03:02:43;;;;;;;6.58;4.03;;;;;;;14.63;100.00;98507.97;1722724;83;21061;-74
2022/07/23 03:05:11;;;;;;;6.08;4.53;;;;;;;14.63;100.00;98507.97;1722891;82;21030;-74
2022/07/23 03:07:37;;;;;;;6.70;4.47;;;;;;;14.64;100.00;98501.99;1722671;83;20998;-76
2022/07/23 03:10:06;;;;;;;6.28;4.40;;;;;;;14.65;100.00;98505.02;1723026;83;21061;-75
2022/07/23 03:12:34;;;;;;;9.08;4.58;;;;;;;14.66;100.00;98500.71;1722740;83;21021;-74
2022/07/23 03:15:01;;;;;;;6.40;4.62;;;;;;;14.68;100.00;98491.78;1723153;83;21062;-75
2022/07/23 03:17:29;;;;;;;10.80;5.20;;;;;;;14.71;100.00;98490.47;1722664;83;21029;-74
2022/07/23 03:19:56;;;;;;;7.33;4.58;;;;;;;14.73;100.00;98482.38;1723126;83;20946;-74
2022/07/23 03:22:24;;;;;;;6.95;4.95;;;;;;;14.75;100.00;98485.69;1722695;83;21026;-73
2022/07/23 03:24:54;;;;;;;6.47;4.50;;;;;;;14.78;100.00;98479.78;1722922;83;21499;-75
2022/07/23 03:27:25;;;;;;;7.78;5.05;;;;;;;14.81;100.00;98475.20;1722862;83;21041;-75
2022/07/23 03:29:53;;;;;;;7.33;5.03;;;;;;;14.85;100.00;98471.48;1723029;83;21054;-75
2022/07/23 03:32:21;;;;;;;6.83;5.53;;;;;;;14.90;100.00;98470.78;1723012;83;21010;-75
2022/07/23 03:34:49;;;;;;;8.13;5.55;;;;;;;14.92;100.00;98466.73;1722892;83;21025;-75
2022/07/23 03:37:17;;;;;;;6.65;4.95;;;;;;;14.96;100.00;98454.84;1722591;83;21500;-76
2022/07/23 03:39:45;;;;;;;9.95;5.35;;;;;;;14.99;100.00;98451.66;1722910;83;20982;-75
2022/07/23 03:42:12;;;;;;;8.15;5.78;;;;;;;15.00;100.00;98439.17;1722782;83;21034;-74
2022/07/23 03:44:39;;;;;;;8.88;5.67;;;;;;;15.03;100.00;98446.56;1723022;83;20993;-75
2022/07/23 03:47:08;;;;;;;10.70;5.60;;;;;;;15.04;100.00;98441.42;1722624;83;21006;-75
2022/07/23 03:49:35;;;;;;;9.38;6.45;;;;;;;15.06;100.00;98443.37;1722818;83;21015;-75
2022/07/23 03:52:02;;;;;;;11.53;6.55;;;;;;;15.09;100.00;98438.81;1722708;83;20989;-75
2022/07/23 03:54:31;;;;;;;9.13;6.50;;;;;;;15.15;100.00;98436.48;1722823;83;21082;-75
2022/07/23 03:56:59;;;;;;;9.10;6.08;;;;;;;15.24;100.00;98435.03;1722591;83;21030;-74
2022/07/23 03:59:26;;;;;;;9.03;6.10;;;;;;;15.35;100.00;98434.70;1722836;83;21009;-74
2022/07/23 04:01:53;;;;;;;9.28;6.22;;;;;;;15.42;100.00;98423.67;1722723;83;21154;-74
2022/07/23 04:04:20;;;;;;;7.95;5.62;;;;;;;15.52;100.00;98404.27;1722869;82;21058;-74
2022/07/23 04:06:48;;;;;;;10.35;6.53;;;;;;;15.64;100.00;98387.06;1702294;83;21492;-75
2022/07/23 04:09:16;;;;;;;11.90;6.42;;;;;;;15.79;100.00;98372.91;1722747;83;21511;-75
2022/07/23 04:11:42;;;;;;;7.42;5.60;;;;;;;15.92;100.00;98369.34;1723033;83;21013;-75
2022/07/23 04:14:11;;;;;;;8.00;5.67;;;;;;;16.04;100.00;98364.34;1722648;83;21465;-75
2022/07/23 04:16:39;;;;;;;9.55;6.03;;;;;;;16.12;100.00;98355.75;1722946;83;21049;-75
2022/07/23 04:19:06;;;;;;;8.30;6.45;;;;;;;16.22;100.00;98350.98;1722999;83;21048;-75
2022/07/23 04:21:36;;;;;;;7.87;5.90;;;;;;;16.29;100.00;98350.30;1719989;83;21033;-75
2022/07/23 04:24:03;;;;;;;9.85;5.87;;;;;;;16.33;100.00;98351.45;1722864;83;21491;-75
2022/07/23 04:26:30;;;;;;;8.68;5.65;;;;;;;16.37;100.00;98344.95;1722968;83;21004;-76
2022/07/23 04:28:58;;;;;;;7.87;5.80;;;;;;;16.41;100.00;98351.55;1722680;83;21527;-75
2022/07/23 04:31:25;;;;;;;12.30;7.92;;;;;;;16.45;100.00;98353.54;1722876;83;21009;-75
2022/07/23 04:33:52;;;;;;;14.18;8.65;;;;;;;16.57;100.00;98349.31;1722937;83;21021;-76
2022/07/23 04:36:18;;;;;;;12.40;8.40;;;;;;;16.72;100.00;98356.09;1723035;83;20966;-76
2022/07/23 04:38:45;;;;;;;12.47;8.23;;;;;;;16.91;100.00;98357.98;1722889;83;21041;-76
2022/07/23 04:41:12;;;;;;;12.18;7.47;;;;;;;17.09;100.00;98345.40;1703494;83;20998;-75
2022/07/23 04:43:41;;;;;;;11.90;7.12;;;;;;;17.26;100.00;98346.16;1724783;83;21519;-75
2022/07/23 04:46:10;;;;;;;11.80;8.48;;;;;;;17.44;100.00;98353.69;1723195;83;21065;-74
2022/07/23 04:48:39;;;;;;;11.73;7.90;;;;;;;17.57;100.00;98362.05;1719812;83;21073;-76
2022/07/23 04:51:08;;;;;;;8.93;6.90;;;;;;;17.63;100.00;98367.83;1722934;83;21002;-75
2022/07/23 04:53:38;;;;;;;9.95;6.70;;;;;;;17.69;100.00;98372.28;1722899;83;20994;-76
2022/07/23 04:56:05;;;;;;;7.80;6.40;;;;;;;17.76;100.00;98381.09;1722887;83;21006;-76
2022/07/23 04:58:34;;;;;;;8.80;6.58;;;;;;;17.89;100.00;98385.34;1722739;83;21069;-75
2022/07/23 05:01:03;;;;;;;7.40;5.65;;;;;;;18.08;100.00;98397.25;1722855;83;21451;-76
2022/07/23 05:03:31;;;;;;;6.95;5.78;;;;;;;18.29;100.00;98400.47;1722665;83;21523;-77
2022/07/23 05:05:58;;;;;;;58.70;52.85;;;;;;;18.54;100.00;98408.03;1722668;82;21041;-78
2022/07/23 05:08:25;;;;;;;15.20;10.40;;;;;;;18.78;100.00;98421.32;1722976;83;21566;-81
2022/07/23 05:10:55;;;;;;;87.50;79.25;;;;;;;18.94;100.00;98439.52;1722860;83;21487;-78
2022/07/23 05:13:23;;;;;;;74.75;66.87;;;;;;;19.08;100.00;98465.08;1722654;83;21050;-78
2022/07/23 05:15:51;;;;;;;15.40;11.50;;;;;;;19.25;100.00;98504.64;1723065;83;20975;-80
2022/07/23 05:18:18;;;;;;;77.35;67.42;;;;;;;19.41;100.00;98532.95;1722708;83;21093;-77
2022/07/23 05:20:49;;;;;;;14.28;10.08;;;;;;;19.59;100.00;98571.42;1722096;83;21078;-81
2022/07/23 05:23:19;;;;;;;;;;;;;;;19.76;100.00;98607.75;1724609;83;21053;-75
2022/07/23 05:25:46;;;;;;;18.98;13.22;;;;;;;19.93;100.00;98650.06;1694850;84;20111;-76
2022/07/23 05:28:13;;;;;;;10.35;6.95;;;;;;;20.13;100.00;98680.88;1698602;84;21070;-74
2022/07/23 05:30:40;;;;;;;8.03;6.10;;;;;;;20.27;100.00;98710.89;1698249;84;21076;-77
2022/07/23 05:33:08;;;;;;;7.37;5.78;;;;;;;20.38;100.00;98734.24;1697641;84;21091;-75
2022/07/23 05:35:35;;;;;;;12.35;7.35;;;;;;;20.51;100.00;98749.42;1677895;84;21061;-75
2022/07/23 05:38:06;;;;;;;9.60;6.20;;;;;;;20.60;100.00;98774.72;1672070;86;21028;-75
2022/07/23 05:40:35;;;;;;;15.05;9.83;;;;;;;20.66;100.00;98793.44;1669041;85;21222;-73
2022/07/23 05:43:02;;;;;;;8.35;7.10;;;;;;;20.78;100.00;98802.84;1695885;84;21183;-75
2022/07/23 05:45:29;;;;;;;11.08;7.35;;;;;;;20.92;100.00;98818.28;1693541;85;21054;-74
2022/07/23 05:47:56;;;;;;;10.25;5.60;;;;;;;21.04;100.00;98829.88;1693751;85;21053;-77
2022/07/23 05:50:27;;;;;;;7.50;5.83;;;;;;;21.23;100.00;98836.53;1665577;86;21039;-78
2022/07/23 05:52:58;;;;;;;149.80;135.37;;;;;;;21.43;100.00;98850.87;1666159;86;21516;-76
2022/07/23 05:55:35;;;;;;;27.37;24.52;;;;;;;21.59;100.00;98863.31;1665857;86;21551;-77
2022/07/23 05:58:03;;;;;;;13.00;9.20;;;;;;;21.69;100.00;98875.72;1665273;86;21046;-75
2022/07/23 06:00:31;;;;;;;7.85;5.95;;;;;;;21.79;100.00;98902.41;1689933;84;20994;-76
2022/07/23 06:02:58;;;;;;;7.15;5.53;;;;;;;21.90;100.00;98915.09;1695930;84;21119;-75
2022/07/23 06:05:27;;;;;;;7.40;5.37;;;;;;;22.05;100.00;98934.11;1689606;84;21559;-76
2022/07/23 06:07:57;;;;;;;9.08;5.87;;;;;;;22.16;100.00;98952.27;1688724;84;21042;-76
2022/07/23 06:10:26;;;;;;;7.33;6.20;;;;;;;22.14;100.00;98977.31;1689035;85;21559;-77
2022/07/23 06:12:53;;;;;;;7.03;5.70;;;;;;;22.17;100.00;98996.05;1688475;84;21173;-77
2022/07/23 06:15:20;;;;;;;7.30;5.97;;;;;;;22.23;100.00;99008.45;1710370;82;21589;-76
2022/07/23 06:17:47;;;;;;;9.23;6.33;;;;;;;22.28;100.00;99027.77;1737491;82;21086;-79
2022/07/23 06:20:16;;;;;;;105.47;94.55;;;;;;;22.28;100.00;99045.10;1737587;83;20990;-79
2022/07/23 06:22:43;;;;;;;25.50;21.23;;;;;;;22.33;100.00;99045.11;1737372;83;21046;-74
2022/07/23 06:25:12;;;;;;;12.98;9.05;;;;;;;22.49;100.00;99044.59;1737922;82;21006;-75
2022/07/23 06:27:39;;;;;;;10.68;7.37;;;;;;;22.64;100.00;99054.78;1737174;83;21002;-76
2022/07/23 06:30:10;;;;;;;41.53;36.70;;;;;;;22.77;100.00;99071.34;1737528;82;21049;-77
2022/07/23 06:32:38;;;;;;;14.28;9.10;;;;;;;22.77;100.00;99084.27;1737907;82;20987;-77
2022/07/23 06:35:06;;;;;;;23.85;20.50;;;;;;;22.93;100.00;99077.68;1737834;82;21068;-79
2022/07/23 06:37:33;;;;;;;10.03;7.75;;;;;;;23.10;100.00;99090.62;1737489;81;21010;-77
2022/07/23 06:40:03;;;;;;;13.70;10.98;;;;;;;23.23;100.00;99105.81;1737274;82;21788;-81
2022/07/23 06:42:30;;;;;;;14.58;10.32;;;;;;;23.13;100.00;99123.17;1736972;83;21033;-78
2022/07/23 06:44:58;;;;;;;10.32;7.92;;;;;;;23.02;100.00;99128.39;1737127;81;20986;-79
2022/07/23 06:47:25;;;;;;;14.00;7.40;;;;;;;23.11;100.00;99130.08;1744870;81;21054;-78
2022/07/23 06:49:52;;;;;;;9.08;6.50;;;;;;;23.37;100.00;99123.97;1748762;82;20972;-78
2022/07/23 06:52:19;;;;;;;7.50;6.30;;;;;;;23.62;100.00;99121.74;1748588;82;21039;-79
2022/07/23 06:54:46;;;;;;;7.40;6.15;;;;;;;23.75;100.00;99148.48;1748509;82;20995;-77
2022/07/23 06:57:13;;;;;;;9.08;6.12;;;;;;;23.82;100.00;99162.84;1748787;82;21500;-77
2022/07/23 06:59:40;;;;;;;6.55;5.67;;;;;;;23.91;100.00;99164.48;1748432;82;21027;-78
2022/07/23 07:02:08;;;;;;;9.20;5.78;;;;;;;24.06;100.00;99176.30;1748879;82;21015;-78
2022/07/23 07:04:35;;;;;;;9.05;6.33;;;;;;;24.17;100.00;99189.52;1749025;82;21051;-78
2022/07/23 07:07:02;;;;;;;9.93;7.03;;;;;;;24.31;100.00;99188.36;1772483;80;21068;-79
2022/07/23 07:09:30;;;;;;;11.18;6.00;;;;;;;24.54;100.00;99185.53;1796972;80;21029;-78
2022/07/23 07:11:57;;;;;;;7.67;6.08;;;;;;;24.58;100.00;99220.33;1796805;80;21044;-78
2022/07/23 07:14:26;;;;;;;9.15;6.10;;;;;;;24.47;100.00;99240.77;1797138;79;21021;-78
2022/07/23 07:16:53;;;;;;;7.20;5.67;;;;;;;24.56;100.00;99233.58;1797583;80;21021;-79
2022/07/23 07:19:21;;;;;;;13.00;7.10;;;;;;;24.77;100.00;99229.63;1798016;80;20977;-77
2022/07/23 07:21:49;;;;;;;91.65;82.12;;;;;;;25.11;100.00;99219.75;1797801;80;21036;-77
2022/07/23 07:24:17;;;;;;;46.18;40.52;;;;;;;25.51;100.00;99222.75;1798149;80;21456;-77
2022/07/23 07:26:43;;;;;;;36.35;28.00;;;;;;;25.86;100.00;99233.81;1797749;80;21057;-78
2022/07/23 07:29:11;;;;;;;11.93;8.70;;;;;;;26.23;100.00;99239.27;1797955;80;21502;-80
2022/07/23 07:31:37;;;;;;;7.72;5.47;;;;;;;26.59;100.00;99259.63;1798082;80;20985;-79
2022/07/23 07:34:04;;;;;;;7.72;4.80;;;;;;;26.85;100.00;99290.66;1797996;80;21009;-80
2022/07/23 07:36:32;;;;;;;5.97;4.60;;;;;;;26.92;100.00;99322.20;1797998;80;21032;-76
2022/07/23 07:39:00;;;;;;;8.90;5.12;;;;;;;26.99;100.00;99334.58;1797629;80;21033;-77
2022/07/23 07:41:28;;;;;;;7.35;5.22;;;;;;;27.06;100.00;99349.47;1797921;80;21049;-76
2022/07/23 07:43:56;;;;;;;8.38;5.40;;;;;;;26.94;100.00;99365.14;1798282;80;20990;-78
2022/07/23 07:46:23;;;;;;;5.85;4.78;;;;;;;26.78;100.00;99374.78;1797593;80;21052;-77
2022/07/23 07:48:51;;;;;;;5.42;4.28;;;;;;;26.64;100.00;99371.88;1795979;80;21523;-76
2022/07/23 07:51:19;;;;;;;5.05;4.30;;;;;;;26.71;100.00;99370.97;1796349;80;21044;-77
2022/07/23 07:53:45;;;;;;;5.45;4.33;;;;;;;26.80;100.00;99385.02;1797113;79;21020;-76
2022/07/23 07:56:12;;;;;;;5.72;4.05;;;;;;;26.81;100.00;99397.20;1799296;80;21036;-77
2022/07/23 07:58:39;;;;;;;4.85;4.28;;;;;;;26.78;100.00;99401.13;1798299;80;21425;-75
2022/07/23 08:01:06;;;;;;;4.85;4.30;;;;;;;26.86;100.00;99398.53;1797558;80;21847;-79
2022/07/23 08:03:33;;;;;;;7.50;4.10;;;;;;;27.05;100.00;99396.36;1752729;80;21616;-78
2022/07/23 08:06:00;;;;;;;6.80;4.75;;;;;;;27.25;100.00;99434.97;1797139;80;20981;-79
2022/07/23 08:08:27;;;;;;;8.40;5.60;;;;;;;27.52;100.00;99481.30;1793395;80;21041;-79
2022/07/23 08:10:54;;;;;;;11.95;7.35;;;;;;;27.89;100.00;99535.23;1791835;80;21020;-79
2022/07/23 08:13:20;;;;;;;5.37;4.33;;;;;;;28.25;100.00;99605.08;1792895;80;20997;-78
2022/07/23 08:15:49;;;;;;;5.05;3.95;;;;;;;28.52;100.00;99668.35;1792734;80;21013;-78
2022/07/23 08:18:15;;;;;;;4.87;3.67;;;;;;;28.75;100.00;99692.27;1793202;80;20997;-77
2022/07/23 08:20:43;;;;;;;3.83;3.37;;;;;;;28.98;100.00;99704.44;1792544;80;21068;-76
2022/07/23 08:23:09;;;;;;;5.22;4.70;;;;;;;29.22;100.00;99709.13;1792937;80;21014;-78
2022/07/23 08:25:40;;;;;;;4.35;3.87;;;;;;;29.40;100.00;99707.43;1793590;80;21000;-79
2022/07/23 08:28:10;;;;;;;7.05;4.25;;;;;;;29.45;100.00;99712.91;1792598;80;21028;-78
2022/07/23 08:30:37;;;;;;;7.53;3.58;;;;;;;29.62;100.00;99716.50;1792756;80;20966;-76
2022/07/23 08:33:10;;;;;;;7.12;4.10;;;;;;;29.69;100.00;99721.95;1793007;80;20990;-75
2022/07/23 08:35:46;;;;;;;7.67;4.70;;;;;;;29.43;100.00;99732.70;1684724;85;21093;-75
2022/07/23 08:38:16;;;;;;;4.67;3.60;;;;;;;29.31;100.00;99727.60;1635503;88;21927;-75
2022/07/23 08:40:46;;;;;;;6.45;4.62;;;;;;;29.49;100.00;99718.13;1635818;88;21064;-76
2022/07/23 08:43:16;;;;;;;5.40;4.05;;;;;;;29.74;100.00;99723.80;1635810;88;21092;-75
2022/07/23 08:45:44;;;;;;;4.58;4.10;;;;;;;29.98;100.00;99728.39;1635438;88;21638;-71
2022/07/23 08:48:21;;;;;;;6.08;3.70;;;;;;;30.07;100.00;99729.35;1635363;88;21118;-76
2022/07/23 08:50:54;;;;;;;6.05;3.60;;;;;;;30.17;100.00;99732.48;1634974;88;21071;-72
2022/07/23 08:53:23;;;;;;;6.65;4.50;;;;;;;30.27;100.00;99734.50;1621254;88;21087;-73
2022/07/23 08:55:52;;;;;;;4.55;3.58;;;;;;;30.43;100.00;99733.64;1621202;88;21106;-71
2022/07/23 08:58:19;;;;;;;26.02;22.70;;;;;;;30.63;100.00;99740.77;1621370;88;21115;-72
2022/07/23 09:00:49;;;;;;;11.20;8.38;;;;;;;30.83;100.00;99734.47;1595570;90;21127;-73
2022/07/23 09:03:23;;;;;;;6.53;4.22;;;;;;;31.00;100.00;99725.44;1590847;90;21083;-78
2022/07/23 09:05:52;;;;;;;5.62;3.70;;;;;;;31.09;100.00;99734.71;1530874;94;21096;-72
2022/07/23 09:08:21;;;;;;;3.95;3.62;;;;;;;31.16;100.00;99723.92;1543368;92;21554;-73
2022/07/23 09:10:57;;;;;;;4.20;3.80;;;;;;;31.30;100.00;99724.45;1542601;92;21124;-74
2022/07/23 09:13:43;;;;;;;3.90;3.35;;;;;;;31.43;100.00;99730.55;1537282;91;21096;-72
2022/07/23 09:16:21;;;;;;;5.62;3.70;;;;;;;31.46;100.00;99745.27;1608624;89;21137;-78
2022/07/23 09:18:52;;;;;;;4.50;4.10;;;;;;;31.45;100.00;99732.45;1617872;89;21067;-72
2022/07/23 09:21:29;;;;;;;4.85;3.58;;;;;;;31.53;100.00;99739.27;1617483;89;21114;-77
2022/07/23 09:24:09;;;;;;;14.75;5.72;;;;;;;31.61;100.00;99732.92;1616919;89;21129;-73
2022/07/23 09:26:42;;;;;;;9.45;5.25;;;;;;;31.46;100.00;99745.84;1557576;92;21121;-73
2022/07/23 09:29:24;;;;;;;4.53;3.80;;;;;;;31.30;100.00;99750.41;1557674;92;21102;-72
2022/07/23 09:31:59;;;;;;;5.60;3.35;;;;;;;31.41;100.00;99740.64;1582171;88;22035;-73
2022/07/23 09:34:38;;;;;;;4.67;3.02;;;;;;;31.52;100.00;99744.58;1636891;88;21579;-74
2022/07/23 09:37:16;;;;;;;5.97;4.08;;;;;;;31.61;100.00;99737.11;1633787;88;21149;-74
2022/07/23 09:39:44;;;;;;;6.80;3.80;;;;;;;31.61;100.00;99742.70;1636752;88;21526;-74
2022/07/23 09:42:25;;;;;;;8.85;3.90;;;;;;;31.47;100.00;99738.54;1636973;88;21025;-75
2022/07/23 09:44:55;;;;;;;7.95;4.53;;;;;;;31.29;100.00;99736.20;1637344;88;21031;-74
2022/07/23 09:47:25;;;;;;;4.08;3.10;;;;;;;31.24;100.00;99732.13;1637520;88;21154;-74
2022/07/23 09:50:08;;;;;;;3.70;3.20;;;;;;;31.41;100.00;99729.47;1627186;88;21070;-75
2022/07/23 09:52:48;;;;;;;4.70;3.33;;;;;;;31.67;100.00;99735.00;1612489;89;21607;-74
2022/07/23 09:55:17;;;;;;;5.50;3.60;;;;;;;31.86;100.00;99731.98;1611975;89;21119;-73
2022/07/23 09:57:49;;;;;;;3.37;2.98;;;;;;;31.98;100.00;99744.20;1611877;89;21632;-75
2022/07/23 10:00:14;;;;;;;3.62;3.30;;;;;;;32.11;100.00;99738.28;1611885;89;21537;-74
2022/07/23 10:02:42;;;;;;;5.47;3.30;;;;;;;32.29;100.00;99734.97;1624715;88;21590;-76
2022/07/23 10:05:29;;;;;;;5.03;3.27;;;;;;;32.50;100.00;99738.58;1634164;88;21076;-79
2022/07/23 10:07:59;;;;;;;6.08;3.77;;;;;;;32.47;100.00;99735.02;1613478;88;21084;-80
2022/07/23 10:10:39;;;;;;;4.60;3.70;;;;;;;32.43;100.00;99742.43;1579183;91;21535;-77
2022/07/23 10:16:02;;;;;;;4.15;3.50;;;;;;;31.62;98.82;99742.93;1533769;94;21182;-78
2022/07/23 10:18:30;;;;;;;6.90;3.77;;;;;;;31.14;100.00;99753.32;1533949;94;21564;-80
2022/07/23 10:20:59;;;;;;;5.80;3.55;;;;;;;30.71;100.00;99754.54;1534059;94;21132;-79
2022/07/23 10:23:43;;;;;;;4.65;3.10;;;;;;;30.32;100.00;99738.34;1557298;91;21161;-76
2022/07/23 10:26:33;;;;;;;3.60;3.00;;;;;;;30.23;100.00;99736.84;1570621;91;21044;-78
2022/07/23 10:29:09;;;;;;;4.85;3.20;;;;;;;30.43;100.00;99725.28;1581321;91;21121;-77
2022/07/23 10:32:14;;;;;;;4.75;3.10;;;;;;;30.66;100.00;99727.56;1581878;91;21610;-78
2022/07/23 10:35:15;;;;;;;10.18;6.12;;;;;;;30.55;100.00;99730.33;1552091;91;21083;-79
2022/07/23 10:37:46;;;;;;;9.90;4.83;;;;;;;30.09;100.00;99727.08;1559152;91;21154;-78
2022/07/23 10:40:19;;;;;;;4.50;3.15;;;;;;;29.51;100.00;99725.03;1519312;94;21049;-77
2022/07/23 10:42:46;;;;;;;3.15;2.85;;;;;;;29.17;100.00;99721.73;1532574;94;21133;-79
2022/07/23 10:45:33;;;;;;;3.70;3.10;;;;;;;29.23;100.00;99712.97;1519106;94;21133;-79
2022/07/23 10:48:26;;;;;;;6.58;3.72;;;;;;;29.60;100.00;99711.80;1499855;95;21121;-78
2022/07/23 10:51:15;;;;;;;8.70;3.98;;;;;;;29.80;100.00;99717.59;1506034;95;21188;-78
2022/07/23 10:53:56;;;;;;;7.37;3.87;;;;;;;29.57;100.00;99711.86;1506647;95;21206;-80
2022/07/23 10:56:58;;;;;;;5.03;3.72;;;;;;;29.18;100.00;99720.04;1506795;95;21162;-79
2022/07/23 10:59:25;;;;;;;5.72;3.90;;;;;;;28.78;100.00;99712.53;1506972;95;21097;-77
2022/07/23 11:01:52;;;;;;;7.53;3.60;;;;;;;28.40;100.00;99714.69;1506877;95;21105;-79
2022/07/23 11:04:24;;;;;;;5.70;3.83;;;;;;;28.15;100.00;99716.38;1506798;95;21121;-80
2022/07/23 11:06:56;;;;;;;6.22;3.77;;;;;;;27.94;100.00;99710.23;1503948;95;21235;-78
2022/07/23 11:09:41;;;;;;;4.37;3.52;;;;;;;27.75;100.00;99705.41;1511355;93;21134;-79
2022/07/23 11:12:25;;;;;;;10.68;6.37;;;;;;;27.62;100.00;99701.38;1544649;93;21054;-78
2022/07/23 11:15:11;;;;;;;7.65;4.90;;;;;;;27.46;100.00;99706.78;1551453;92;21235;-79
2022/07/23 11:17:54;;;;;;;9.60;5.75;;;;;;;27.27;100.00;99702.53;1550287;93;21078;-77
2022/07/23 11:20:23;;;;;;;14.53;8.28;;;;;;;27.12;100.00;99697.06;1565106;90;21074;-75
2022/07/23 11:22:54;;;;;;;167.28;150.47;;;;;;;27.32;100.00;99686.38;1551079;93;21078;-77
2022/07/23 11:25:30;;;;;;;10.32;6.50;;;;;;;27.67;100.00;99696.87;1548987;93;21082;-79
2022/07/23 11:28:16;;;;;;;7.90;6.10;;;;;;;27.83;100.00;99696.98;1549875;93;21054;-79
2022/07/23 11:30:49;;;;;;;6.20;4.90;;;;;;;27.71;100.00;99700.18;1566849;90;21090;-79
2022/07/23 11:33:18;;;;;;;15.75;11.50;;;;;;;27.51;100.00;99706.73;1578233;90;21071;-78
2022/07/23 11:35:49;;;;;;;9.50;5.42;;;;;;;27.28;100.00;99709.72;1595255;90;21154;-78